logo
Search for airport 
image banner adimage banner adimage banner ad
image banner ad

SJFK - Fazenda Cachoeira

Located in Araguaçu, Brazil

ICAO - SJFK, IATA -

Data provided by Airmate  

General information

Coordinates: S12°35'28" W49°31'30"
Elevation is 770 feet MSL.
Magnetic variation is -21° East
View others Airports in Tocatins

Operational data

Special qualification required
Current time UTC:
Current local time:
Weather at : - ( 0 km )
METAR: CYYR 140342Z 07009KT 15SM FEW012 BKN022 OVC030 08/08 A2953 RMK SF1SC5SC3 DENSITY ALT -12FT CIG EST SLP001
View NOTAMs / SUP AIP / TFR affecting this airport [VIEW]
Communications frequencies: [VIEW]

Runways:

RWY identifierQFULength (ft)Width (ft)SurfaceLDA (ft)
10393759EARTH
28393759EARTH

Airport contact information

Address: Araguaçu Brazil

Satellite view of SJFK